Terminal Aerodrome Forecast
Issued by NWS Melbourne, FL

Home | Current Version | Previous Version | Text Only | Print | Product List | Glossary On
Versions: 1 2 3 4 5 6 7 8 9 10 11 12 13 14 15 16 17 18 19 20 21 22 23 24 25 26 27
000
FTUS42 KMLB 312223 AAB
TAFMCO
TAF AMD
KMCO 312223Z 3122/0118 06012KT P6SM VCTS SCT035CB BKN100 BKN240
      TEMPO 3122/3123 VRB15G28KT 2SM TSRA BKN025CB BKN040
     FM010000 16005KT P6SM VCSH SCT020 SCT050 BKN150
     FM011400 17005KT P6SM FEW015 SCT150 BKN250=

USA.gov is the U.S. government's official web portal to all federal, state and local government web resources and services.